Monday, April 27, 2015, 11:28 AM EDT

KOFP, Hanover County Municipal

Location: Ashland, VA, United States Lat: 37.7
Local Time: 11:28 AM EDT (15:28 GMT) Lon: -77.433
Time Zone: US/Eastern Elev: 203 ft

Show me the last for .
Show Decoded

2015-04-27 10:54 METAR KOFP 271454Z AUTO 31009KT 10SM CLR 14/01 A2982 RMK AO2 SLP099 T01440006
                 51008 =
2015-04-27 09:54 METAR KOFP 271354Z AUTO VRB04KT 10SM CLR 13/01 A2982 RMK AO2 SLP097 T01330011 =
2015-04-27 08:54 METAR KOFP 271254Z AUTO VRB04KT 10SM CLR 12/02 A2982 RMK AO2 SLP097 T01170022 =
2015-04-27 07:54 METAR KOFP 271154Z AUTO 34003KT 10SM CLR 08/03 A2980 RMK AO2 SLP090 70002
                 T00830028 10083 20044 53018 =
2015-04-27 06:54 METAR KOFP 271054Z AUTO 00000KT 10SM CLR 06/03 A2978 RMK AO2 SLP084 T00560028 =
2015-04-27 05:54 METAR KOFP 270954Z AUTO VRB03KT 10SM CLR 06/04 A2976 RMK AO2 SLP076 T00560039 =
2015-04-27 04:54 METAR KOFP 270854Z AUTO 00000KT 8SM CLR 04/04 A2974 RMK AO2 SLP072 T00440039
                 53001 =
2015-04-27 03:54 METAR KOFP 270754Z AUTO 00000KT 10SM CLR 05/04 A2973 RMK AO2 SLP069 T00500039 =
2015-04-27 02:54 METAR KOFP 270654Z AUTO 00000KT 10SM CLR 06/04 A2973 RMK AO2 SLP067 T00560044 =
2015-04-27 01:54 METAR KOFP 270554Z AUTO 00000KT 10SM CLR 06/04 A2974 RMK AO2 SLP072 T00560044
                 10117 20056 56006 =
2015-04-27 00:54 METAR KOFP 270454Z AUTO 00000KT 6SM BR CLR 06/05 A2975 RMK AO2 SLP073 T00560050
                 401670056 =
2015-04-26 23:54 METAR KOFP 270354Z AUTO 00000KT 8SM CLR 06/06 A2975 RMK AO2 SLP076 T00610056 =
2015-04-26 22:54 METAR KOFP 270254Z AUTO 00000KT 9SM CLR 07/06 A2976 RMK AO2 SLP078 T00670056
                 51013 =
2015-04-26 21:54 METAR KOFP 270154Z AUTO 00000KT 10SM CLR 08/06 A2975 RMK AO2 SLP075 T00780061 =
2015-04-26 20:54 METAR KOFP 270054Z AUTO 00000KT 10SM CLR 09/06 A2974 RMK AO2 SLP070 T00940061 =
2015-04-26 19:54 METAR KOFP 262354Z AUTO 00000KT 10SM CLR 12/07 A2972 RMK AO2 SLP065 T01170067
                 10167 20117 53005 =
2015-04-26 18:54 METAR KOFP 262254Z AUTO 00000KT 10SM CLR 16/03 A2971 RMK AO2 SLP062 T01610028 =
2015-04-26 17:54 METAR KOFP 262154Z AUTO 00000KT 10SM CLR 16/02 A2971 RMK AO2 SLP060 T01610022 =
2015-04-26 16:54 METAR KOFP 262054Z AUTO 00000KT 10SM FEW060 16/02 A2971 RMK AO2 SLP060 T01560017
                 56010 =
2015-04-26 15:54 METAR KOFP 261954Z AUTO 03005KT 10SM BKN055 16/03 A2971 RMK AO2 SLP061 T01560028
                 =
2015-04-26 14:54 METAR KOFP 261854Z AUTO VRB04KT 10SM BKN048 14/04 A2972 RMK AO2 SLP066 T01440044
                 =
2015-04-26 13:54 METAR KOFP 261754Z AUTO 10SM SCT037 SCT045 BKN065 14/05 A2974 RMK AO2 SLP070
                 60002 T01440050 10144 20061 57005 =
2015-04-26 12:54 METAR KOFP 261654Z AUTO VRB05KT 10SM FEW028 BKN065 12/05 A2974 RMK AO2 SLP071
                 T01220050 =
2015-04-26 11:54 METAR KOFP 261554Z AUTO VRB04KT 10SM FEW020 FEW060 BKN095 12/06 A2975 RMK AO2
                 SLP074 T01170056 =

Support USWX by starting your Amazon purchase here.